createdAt,value
2022-08-21T06:00:15.556Z,65.90
2022-08-21T06:02:19.852Z,57.80
2022-08-21T06:04:21.796Z,69.20
2022-08-21T06:06:23.446Z,59.90
2022-08-21T06:08:25.957Z,58.00
2022-08-21T06:10:27.638Z,60.20
2022-08-21T06:12:29.723Z,53.00
2022-08-21T06:14:31.669Z,59.30
2022-08-21T06:16:33.502Z,36.80
2022-08-21T06:18:36.782Z,45.30
2022-08-21T06:20:39.249Z,35.40
2022-08-21T06:22:40.926Z,32.70
2022-08-21T06:24:42.597Z,19.50
2022-08-21T06:26:44.916Z,23.60
2022-08-21T06:28:46.634Z,20.20
2022-08-21T06:30:48.555Z,23.10
2022-08-21T06:32:50.295Z,12.00
2022-08-21T06:34:52.087Z,21.00
2022-08-21T06:36:53.805Z,14.90
2022-08-21T06:38:58.549Z,21.80
2022-08-21T06:41:00.306Z,4.50
2022-08-21T06:43:15.066Z,1.00
2022-08-21T06:45:17.231Z,1.00
2022-08-21T06:47:18.928Z,1.00
2022-08-21T06:49:21.640Z,1.00
2022-08-21T06:51:24.868Z,1.00
2022-08-21T06:53:27.226Z,1.00
2022-08-21T06:55:29.343Z,99.90
2022-08-21T06:57:31.064Z,1.00
2022-08-21T06:59:33.718Z,1.00
2022-08-21T07:01:35.536Z,1.00
2022-08-21T07:03:40.153Z,99.90
2022-08-21T07:05:41.858Z,1.00
2022-08-21T07:07:44.013Z,99.90
2022-08-21T07:09:45.979Z,99.90
2022-08-21T07:11:51.694Z,99.90
2022-08-21T07:13:55.193Z,99.90
2022-08-21T07:16:01.645Z,99.90
2022-08-21T07:18:06.010Z,99.90
2022-08-21T07:20:08.333Z,99.90
2022-08-21T07:22:10.158Z,99.90
2022-08-21T07:24:11.864Z,99.90
2022-08-21T07:26:15.490Z,99.90
2022-08-21T07:28:17.189Z,99.90
2022-08-21T07:30:19.206Z,99.90
2022-08-21T07:32:21.488Z,99.90
2022-08-21T07:34:23.329Z,99.90
2022-08-21T07:36:25.014Z,93.60
2022-08-21T07:38:27.880Z,91.80
2022-08-21T07:40:29.615Z,62.30
2022-08-21T07:42:31.336Z,91.40
2022-08-21T07:44:35.184Z,75.90
2022-08-21T07:46:36.917Z,40.20
2022-08-21T07:48:38.848Z,25.90
2022-08-21T07:50:41.786Z,24.30
2022-08-21T07:52:44.272Z,12.10
2022-08-21T07:54:46.020Z,12.60
2022-08-21T07:56:47.781Z,1.00
2022-08-21T07:58:49.974Z,5.70
2022-08-21T08:00:51.832Z,1.00
2022-08-21T08:02:55.327Z,1.00
2022-08-21T08:05:02.014Z,2.00
2022-08-21T08:07:03.926Z,1.00
2022-08-21T08:09:05.652Z,9.20
2022-08-21T08:11:09.074Z,1.00
2022-08-21T08:13:10.785Z,1.00
2022-08-21T08:15:17.407Z,1.00
2022-08-21T08:17:23.038Z,1.00
2022-08-21T08:19:24.835Z,1.00
2022-08-21T08:21:27.453Z,1.00
2022-08-21T08:23:29.249Z,1.00
2022-08-21T08:25:32.731Z,1.00
2022-08-21T08:27:38.985Z,1.00
2022-08-21T08:29:40.638Z,1.00
2022-08-21T08:31:42.363Z,1.00
2022-08-21T08:33:44.355Z,1.00
2022-08-21T08:35:48.749Z,1.00
2022-08-21T08:37:52.712Z,1.00
2022-08-21T08:39:54.785Z,1.00
2022-08-21T08:42:32.189Z,1.00
2022-08-21T08:44:36.091Z,1.00
2022-08-21T08:46:44.429Z,1.00
2022-08-21T08:49:08.252Z,1.00
2022-08-21T08:51:20.340Z,1.00
2022-08-21T08:53:33.148Z,1.00
2022-08-21T08:55:43.620Z,1.00
2022-08-21T08:57:50.076Z,1.00
2022-08-21T08:59:56.411Z,1.00
2022-08-21T09:01:58.353Z,1.00
2022-08-21T09:04:00.671Z,1.00
2022-08-21T09:06:43.579Z,1.00
2022-08-21T09:08:55.887Z,1.00
2022-08-21T09:11:12.423Z,1.00
2022-08-21T09:13:52.076Z,1.00
2022-08-21T09:16:17.093Z,1.00
2022-08-21T09:18:35.179Z,1.00
2022-08-21T09:20:57.394Z,1.00
2022-08-21T09:23:34.983Z,1.00
2022-08-21T09:25:50.354Z,1.00
2022-08-21T09:27:52.259Z,1.00
2022-08-21T09:29:55.598Z,1.00
2022-08-21T09:31:57.898Z,1.00
2022-08-21T09:34:05.771Z,1.00
2022-08-21T09:36:07.585Z,1.00
2022-08-21T09:38:09.647Z,1.00
2022-08-21T09:40:35.525Z,1.00
2022-08-21T09:42:37.301Z,1.00
2022-08-21T09:44:44.285Z,1.00
2022-08-21T09:46:52.700Z,1.00
2022-08-21T09:48:57.783Z,1.00
2022-08-21T09:51:10.310Z,1.00
2022-08-21T09:53:20.707Z,1.00
2022-08-21T09:56:06.168Z,1.00
2022-08-21T09:58:10.006Z,1.00
2022-08-21T10:00:27.786Z,1.00
2022-08-21T10:02:32.607Z,1.00
2022-08-21T10:04:36.674Z,1.00
2022-08-21T10:06:38.987Z,1.00
2022-08-21T10:08:42.108Z,1.00
2022-08-21T10:10:43.894Z,1.00
2022-08-21T10:12:54.701Z,1.00
2022-08-21T10:15:14.893Z,1.00
2022-08-21T10:17:22.168Z,1.00
2022-08-21T10:19:30.951Z,1.00
2022-08-21T10:21:46.953Z,1.00
2022-08-21T10:24:09.443Z,1.00
2022-08-21T10:26:44.840Z,1.00
2022-08-21T10:29:01.572Z,1.00
2022-08-21T10:31:13.593Z,1.00
2022-08-21T10:33:27.588Z,1.00
2022-08-21T10:35:34.330Z,1.00
2022-08-21T10:37:57.687Z,1.00
2022-08-21T10:40:32.661Z,1.00
2022-08-21T10:42:42.723Z,1.00
2022-08-21T10:45:14.857Z,1.00
2022-08-21T10:47:19.846Z,1.00
2022-08-21T10:49:29.895Z,1.00
2022-08-21T10:51:54.643Z,1.00
2022-08-21T10:54:24.911Z,1.00
2022-08-21T10:56:31.133Z,1.00
2022-08-21T10:58:54.673Z,1.00
2022-08-21T11:01:24.071Z,1.00
2022-08-21T11:03:42.060Z,1.00
2022-08-21T11:05:51.097Z,99.90
2022-08-21T11:08:06.558Z,99.60
2022-08-21T11:10:19.910Z,1.00
2022-08-21T11:12:27.308Z,1.00
2022-08-21T11:14:50.256Z,1.00
2022-08-21T11:17:12.334Z,1.00
2022-08-21T11:19:42.257Z,1.00
2022-08-21T11:21:54.653Z,1.00
2022-08-21T11:24:08.429Z,1.00
2022-08-21T11:26:18.345Z,1.00
2022-08-21T11:28:29.183Z,1.00
2022-08-21T11:31:00.008Z,1.00
2022-08-21T11:33:32.234Z,1.00
2022-08-21T11:35:52.353Z,1.00
2022-08-21T11:38:04.676Z,1.00
2022-08-21T11:40:41.418Z,1.00
2022-08-21T11:43:04.184Z,1.00
2022-08-21T11:45:20.402Z,1.00
2022-08-21T11:47:59.221Z,1.00
2022-08-21T11:50:29.800Z,1.00
2022-08-21T11:52:42.213Z,1.00
2022-08-21T11:54:44.394Z,1.00
2022-08-21T11:56:53.147Z,1.00
2022-08-21T11:59:00.339Z,1.00
2022-08-21T12:01:11.871Z,1.00
2022-08-21T12:03:38.989Z,1.00
2022-08-21T12:05:54.548Z,1.00
2022-08-21T12:08:11.469Z,1.00
2022-08-21T12:10:17.692Z,1.00
2022-08-21T12:12:35.614Z,1.00
2022-08-21T12:14:43.702Z,1.00
2022-08-21T12:16:50.677Z,1.00
2022-08-21T12:19:26.641Z,1.00
2022-08-21T12:21:29.529Z,1.00
2022-08-21T12:24:00.055Z,1.00
2022-08-21T12:26:14.635Z,1.00
2022-08-21T12:28:23.931Z,1.00
2022-08-21T12:30:28.623Z,1.00
2022-08-21T12:32:58.635Z,1.00
2022-08-21T12:35:25.058Z,1.00
2022-08-21T12:37:42.355Z,1.00
2022-08-21T12:39:47.788Z,1.00
2022-08-21T12:42:06.181Z,1.00
2022-08-21T12:44:24.271Z,1.00
2022-08-21T12:46:37.762Z,1.00
2022-08-21T12:48:55.369Z,1.00
2022-08-21T12:51:07.357Z,1.00
2022-08-21T12:53:18.532Z,1.00
2022-08-21T12:55:29.507Z,1.00
2022-08-21T12:57:31.748Z,1.00
2022-08-21T12:59:38.072Z,1.00
2022-08-21T13:01:48.384Z,1.00
2022-08-21T13:04:04.184Z,1.00
2022-08-21T13:06:07.897Z,1.00
2022-08-21T13:08:13.574Z,1.00
2022-08-21T13:10:24.211Z,1.00
2022-08-21T13:12:32.334Z,1.00
2022-08-21T13:14:45.878Z,1.00
2022-08-21T13:16:48.574Z,1.00
2022-08-21T13:18:59.728Z,1.00
2022-08-21T13:21:15.869Z,1.00
2022-08-21T13:23:29.238Z,1.00
2022-08-21T13:25:37.057Z,1.00
2022-08-21T13:27:38.992Z,1.00
2022-08-21T13:29:40.710Z,1.00
2022-08-21T13:31:53.534Z,1.00
2022-08-21T13:33:56.317Z,1.00
2022-08-21T13:35:57.964Z,1.00
2022-08-21T13:38:00.899Z,1.00
2022-08-21T13:40:03.080Z,1.00
2022-08-21T13:42:09.590Z,1.00
2022-08-21T13:44:35.310Z,1.00
2022-08-21T13:46:37.704Z,1.00
2022-08-21T13:48:39.749Z,1.00
2022-08-21T13:50:42.389Z,1.00
2022-08-21T13:53:23.037Z,1.00
2022-08-21T13:55:25.824Z,1.00
2022-08-21T13:57:33.726Z,1.00
2022-08-21T13:59:37.029Z,1.00
2022-08-21T14:01:58.136Z,1.00
2022-08-21T14:04:08.397Z,1.00
2022-08-21T14:06:19.306Z,1.00
2022-08-21T14:08:52.294Z,1.00
2022-08-21T14:10:57.871Z,1.00
2022-08-21T14:13:03.520Z,1.00
2022-08-21T14:15:06.646Z,1.00
2022-08-21T14:17:25.049Z,1.00
2022-08-21T14:19:38.287Z,1.00
2022-08-21T14:21:44.751Z,1.00
2022-08-21T14:23:46.469Z,1.00
2022-08-21T14:25:48.146Z,1.00
2022-08-21T14:28:09.936Z,1.00
2022-08-21T14:30:20.216Z,1.00
2022-08-21T14:32:26.100Z,1.00
2022-08-21T14:34:34.121Z,1.00
2022-08-21T14:36:37.534Z,1.00
2022-08-21T14:38:41.289Z,1.00
2022-08-21T14:40:44.833Z,1.00
2022-08-21T14:42:47.458Z,1.00
2022-08-21T14:44:49.262Z,1.00
2022-08-21T14:46:56.082Z,1.00
2022-08-21T14:48:59.022Z,1.00
2022-08-21T14:51:00.952Z,1.00
2022-08-21T14:53:04.338Z,1.00
2022-08-21T14:55:17.379Z,1.00
2022-08-21T14:57:19.510Z,1.00
2022-08-21T14:59:21.890Z,1.00
2022-08-21T15:01:23.786Z,1.00
2022-08-21T15:03:26.810Z,1.00
2022-08-21T15:05:33.001Z,1.00
2022-08-21T15:07:35.715Z,1.00
2022-08-21T15:09:37.458Z,1.00
2022-08-21T15:11:42.194Z,1.00
2022-08-21T15:13:44.903Z,1.00
2022-08-21T15:15:49.120Z,1.00
2022-08-21T15:17:50.814Z,1.00
2022-08-21T15:19:52.478Z,1.00
2022-08-21T15:21:54.540Z,1.00
2022-08-21T15:23:56.479Z,1.00
2022-08-21T15:26:00.850Z,1.00
2022-08-21T15:28:05.149Z,1.00
2022-08-21T15:30:07.638Z,1.00
2022-08-21T15:32:28.276Z,1.00
2022-08-21T15:34:31.397Z,1.00
2022-08-21T15:36:33.096Z,1.00
2022-08-21T15:38:34.965Z,1.00
2022-08-21T15:40:37.229Z,1.00
2022-08-21T15:42:40.885Z,1.00
2022-08-21T15:44:43.778Z,1.00
2022-08-21T15:46:45.817Z,1.00
2022-08-21T15:48:47.712Z,1.00
2022-08-21T15:50:49.483Z,1.00
2022-08-21T15:52:51.568Z,1.00
2022-08-21T15:54:54.377Z,1.00
2022-08-21T15:56:56.142Z,1.00
2022-08-21T15:59:06.129Z,1.00
2022-08-21T16:01:09.508Z,1.00
2022-08-21T16:03:16.790Z,1.00
2022-08-21T16:05:19.391Z,1.00
2022-08-21T16:07:21.480Z,1.00
2022-08-21T16:09:23.563Z,1.00
2022-08-21T16:11:25.501Z,1.00
2022-08-21T16:13:32.899Z,1.00
2022-08-21T16:15:34.825Z,1.00
2022-08-21T16:17:37.938Z,1.00
2022-08-21T16:19:40.382Z,1.00
2022-08-21T16:21:42.361Z,1.00
2022-08-21T16:23:44.637Z,1.00
2022-08-21T16:25:46.754Z,1.00
2022-08-21T16:27:57.280Z,1.00
2022-08-21T16:30:02.405Z,1.00
2022-08-21T16:32:05.944Z,1.00
2022-08-21T16:34:11.179Z,1.00
2022-08-21T16:36:17.708Z,1.00
2022-08-21T16:38:19.845Z,1.00
2022-08-21T16:40:23.524Z,1.00
2022-08-21T16:42:26.063Z,1.00
2022-08-21T16:44:30.175Z,1.00
2022-08-21T16:46:38.509Z,1.00
2022-08-21T16:48:41.776Z,1.00
2022-08-21T16:50:46.857Z,1.00
2022-08-21T16:52:52.033Z,1.00
2022-08-21T16:54:53.737Z,1.00
2022-08-21T16:56:55.720Z,1.00
2022-08-21T16:58:58.963Z,1.00
2022-08-21T17:01:05.845Z,1.00
2022-08-21T17:03:13.425Z,1.00
2022-08-21T17:05:15.776Z,1.00
2022-08-21T17:07:17.455Z,1.00
2022-08-21T17:09:19.461Z,1.00
2022-08-21T17:11:38.457Z,1.00
2022-08-21T17:13:40.317Z,1.00
2022-08-21T17:15:42.675Z,1.00
2022-08-21T17:17:44.717Z,1.00
2022-08-21T17:19:47.358Z,1.00
2022-08-21T17:21:49.441Z,1.00
2022-08-21T17:23:51.173Z,1.00
2022-08-21T17:25:54.816Z,1.00
2022-08-21T17:27:57.601Z,1.00
2022-08-21T17:29:59.465Z,1.00
2022-08-21T17:32:01.321Z,1.00
2022-08-21T17:34:04.658Z,1.00
2022-08-21T17:36:07.158Z,1.00
2022-08-21T17:38:10.073Z,1.00
2022-08-21T17:40:17.390Z,1.00
2022-08-21T17:42:20.091Z,1.00
2022-08-21T17:44:21.945Z,1.00
2022-08-21T17:46:27.795Z,1.00
2022-08-21T17:48:29.564Z,1.00
2022-08-21T17:50:31.345Z,1.00
2022-08-21T17:52:33.119Z,1.00
2022-08-21T17:54:36.049Z,1.00
2022-08-21T17:56:42.584Z,1.00
2022-08-21T17:58:50.247Z,1.00
2022-08-21T18:00:52.072Z,1.00
2022-08-21T18:03:14.699Z,1.00
2022-08-21T18:05:16.654Z,1.00
2022-08-21T18:07:31.763Z,1.00
2022-08-21T18:09:34.228Z,1.00
2022-08-21T18:11:37.527Z,1.00
2022-08-21T18:13:40.399Z,1.00
2022-08-21T18:15:46.166Z,1.00
2022-08-21T18:17:50.820Z,1.00
2022-08-21T18:19:52.494Z,1.00
2022-08-21T18:21:55.626Z,1.00
2022-08-21T18:23:57.561Z,1.00
2022-08-21T18:25:59.776Z,1.00
2022-08-21T18:28:07.155Z,1.00
2022-08-21T18:30:10.392Z,1.00
2022-08-21T18:32:31.144Z,1.00
2022-08-21T18:34:39.249Z,1.00
2022-08-21T18:36:41.152Z,1.00
2022-08-21T18:38:42.853Z,1.00
2022-08-21T18:40:47.128Z,1.00
2022-08-21T18:42:55.702Z,1.00
2022-08-21T18:45:03.069Z,1.00
2022-08-21T18:47:12.163Z,1.00
2022-08-21T18:49:14.051Z,1.00
2022-08-21T18:51:15.877Z,1.00
2022-08-21T18:53:27.404Z,1.00
2022-08-21T18:55:31.044Z,1.00
2022-08-21T18:57:33.905Z,1.00
2022-08-21T18:59:36.277Z,1.00
2022-08-21T19:01:38.877Z,1.00
2022-08-21T19:03:42.045Z,1.00
2022-08-21T19:05:45.231Z,1.00
2022-08-21T19:07:47.833Z,1.00
2022-08-21T19:10:14.107Z,1.00
2022-08-21T19:12:20.651Z,1.00
2022-08-21T19:14:23.261Z,12.80
2022-08-21T19:16:27.246Z,77.30
2022-08-21T19:18:31.748Z,99.90
2022-08-21T19:20:36.813Z,99.90
2022-08-21T19:22:39.305Z,99.90
2022-08-21T19:24:50.046Z,99.90
2022-08-21T19:29:18.918Z,99.90
2022-08-21T19:31:25.233Z,99.90
2022-08-21T19:33:33.587Z,99.90
2022-08-21T19:35:35.509Z,1.00
2022-08-21T19:37:37.530Z,1.00
2022-08-21T19:39:44.844Z,1.00
2022-08-21T19:41:54.858Z,1.00
2022-08-21T19:44:01.847Z,1.00
2022-08-21T19:46:03.752Z,1.00
2022-08-21T19:48:05.804Z,1.00
2022-08-21T19:52:32.516Z,1.00
2022-08-21T19:54:37.693Z,1.00
2022-08-21T19:56:39.446Z,1.00
2022-08-21T19:58:44.412Z,1.00
2022-08-21T20:00:47.669Z,1.00
2022-08-21T20:02:49.562Z,1.00
2022-08-21T20:04:53.544Z,1.00
2022-08-21T20:06:56.728Z,1.00
2022-08-21T20:08:59.343Z,13.40
2022-08-21T20:11:02.494Z,16.60
2022-08-21T20:13:06.141Z,99.90
2022-08-21T20:15:09.295Z,99.90
2022-08-21T20:17:13.880Z,99.90
2022-08-21T20:19:16.598Z,99.90
2022-08-21T20:21:20.417Z,99.90
2022-08-21T20:23:29.957Z,99.90
2022-08-21T20:25:34.681Z,1.00
2022-08-21T20:27:40.673Z,99.90
2022-08-21T20:29:42.422Z,99.90
2022-08-21T20:31:44.528Z,1.00
2022-08-21T20:33:46.309Z,99.90
2022-08-21T20:35:52.187Z,99.90
2022-08-21T20:40:16.431Z,99.90
2022-08-21T20:42:24.841Z,99.90
2022-08-21T20:44:32.673Z,99.90
2022-08-21T20:46:35.202Z,99.90
2022-08-21T20:48:48.930Z,99.90
2022-08-21T20:51:10.814Z,99.90
2022-08-21T20:53:21.334Z,99.90
2022-08-21T20:55:29.376Z,99.90
2022-08-21T20:57:56.167Z,99.90
2022-08-21T21:00:14.646Z,99.90
2022-08-21T21:02:46.112Z,99.90
2022-08-21T21:04:59.590Z,69.80
2022-08-21T21:07:02.846Z,1.00
2022-08-21T21:09:13.570Z,1.00
2022-08-21T21:11:24.926Z,99.20
2022-08-21T21:13:34.119Z,82.60
2022-08-21T21:15:36.765Z,1.00
2022-08-21T21:17:49.414Z,83.30
2022-08-21T21:19:58.818Z,19.80
2022-08-21T21:22:16.117Z,85.90
2022-08-21T21:24:23.240Z,26.60
2022-08-21T21:26:38.273Z,59.80
2022-08-21T21:29:20.648Z,1.00
2022-08-21T21:31:24.165Z,99.90
2022-08-21T21:33:25.961Z,99.90
2022-08-21T21:35:38.509Z,99.90
2022-08-21T21:37:51.685Z,99.90
2022-08-21T21:39:58.082Z,99.90
2022-08-21T21:42:08.663Z,99.90
2022-08-21T21:46:48.725Z,99.90
2022-08-21T21:49:03.112Z,1.00
2022-08-21T21:51:49.129Z,99.90
2022-08-21T21:54:19.100Z,1.00
2022-08-21T21:56:27.683Z,1.00
2022-08-21T21:58:52.683Z,1.00
2022-08-21T22:01:14.720Z,1.00
2022-08-21T22:03:28.636Z,99.90
2022-08-21T22:05:45.225Z,99.90
2022-08-21T22:08:22.219Z,1.00
2022-08-21T22:10:43.763Z,99.90
2022-08-21T22:13:09.685Z,1.00
2022-08-21T22:15:26.350Z,1.00
2022-08-21T22:17:57.925Z,99.90
2022-08-21T22:20:16.286Z,40.20
2022-08-21T22:22:21.788Z,1.00
2022-08-21T22:24:34.274Z,99.90
2022-08-21T22:29:18.435Z,99.90
2022-08-21T22:31:22.101Z,99.90
2022-08-21T22:33:34.380Z,99.90
2022-08-21T22:35:42.295Z,99.90
2022-08-21T22:37:52.322Z,1.00
2022-08-21T22:40:01.347Z,1.00
2022-08-21T22:42:14.286Z,1.00
2022-08-21T22:44:27.379Z,1.00
2022-08-21T22:46:38.273Z,99.90
2022-08-21T22:48:59.470Z,1.00
2022-08-21T22:51:09.862Z,1.00
2022-08-21T22:53:31.328Z,1.00
2022-08-21T22:55:44.279Z,99.90
2022-08-21T22:57:46.170Z,99.90
2022-08-21T23:00:15.101Z,99.90
2022-08-21T23:05:31.353Z,1.00
2022-08-21T23:07:49.760Z,1.00
2022-08-21T23:09:58.283Z,1.00
2022-08-21T23:14:28.652Z,99.90
2022-08-21T23:17:01.313Z,1.00
2022-08-21T23:19:18.019Z,1.00
2022-08-21T23:21:52.286Z,1.00
2022-08-21T23:24:19.132Z,94.40
2022-08-21T23:26:52.313Z,99.90
2022-08-21T23:29:07.888Z,99.90
2022-08-21T23:31:39.284Z,1.00
2022-08-21T23:34:00.281Z,1.00
2022-08-21T23:36:29.710Z,1.00
2022-08-21T23:38:51.337Z,99.90
2022-08-21T23:41:03.871Z,1.00
2022-08-21T23:43:46.358Z,1.00
2022-08-21T23:46:35.278Z,1.00
2022-08-21T23:49:05.953Z,1.00
2022-08-21T23:51:48.078Z,65.50
2022-08-21T23:54:26.347Z,31.60
2022-08-21T23:56:42.729Z,99.90
2022-08-21T23:59:02.490Z,99.90
